createdAt,value
2023-03-06T00:02:09.665Z,3.77
2023-03-06T00:07:11.727Z,3.57
2023-03-06T00:12:13.476Z,3.40
2023-03-06T00:17:15.042Z,3.58
2023-03-06T00:22:16.912Z,3.56
2023-03-06T00:27:18.434Z,3.51
2023-03-06T00:32:20.030Z,3.65
2023-03-06T00:37:23.232Z,3.59
2023-03-06T00:42:24.962Z,3.59
2023-03-06T00:47:26.979Z,3.58
2023-03-06T00:52:29.774Z,3.48
2023-03-06T00:57:31.410Z,3.39
2023-03-06T01:02:33.053Z,3.24
2023-03-06T01:07:36.672Z,3.24
2023-03-06T01:12:38.250Z,2.82
2023-03-06T01:17:40.160Z,2.96
2023-03-06T01:22:42.015Z,2.37
2023-03-06T01:27:43.640Z,2.22
2023-03-06T01:32:45.631Z,2.16
2023-03-06T01:37:47.485Z,2.20
2023-03-06T01:42:50.571Z,2.08
2023-03-06T01:47:52.374Z,2.20
2023-03-06T01:52:57.839Z,2.22
2023-03-06T01:58:03.465Z,2.19
2023-03-06T02:03:12.967Z,2.35
2023-03-06T02:08:18.438Z,2.25
2023-03-06T02:13:20.011Z,2.18
2023-03-06T02:18:27.562Z,2.25
2023-03-06T02:23:51.088Z,2.18
2023-03-06T02:28:52.704Z,2.14
2023-03-06T02:34:23.516Z,2.14
2023-03-06T02:39:28.212Z,2.05
2023-03-06T02:44:31.745Z,2.03
2023-03-06T02:49:33.601Z,1.96
2023-03-06T02:54:35.157Z,1.74
2023-03-06T02:59:36.978Z,1.71
2023-03-06T03:04:40.411Z,1.69
2023-03-06T03:09:42.256Z,1.85
2023-03-06T03:14:45.076Z,1.76
2023-03-06T03:19:48.073Z,1.86
2023-03-06T03:24:49.883Z,1.87
2023-03-06T03:29:51.648Z,1.86
2023-03-06T03:34:55.629Z,1.91
2023-03-06T03:39:59.403Z,1.99
2023-03-06T03:45:01.895Z,1.96
2023-03-06T03:50:04.797Z,1.95
2023-03-06T03:55:07.059Z,2.02
2023-03-06T04:00:11.976Z,2.05
2023-03-06T04:05:24.754Z,2.15
2023-03-06T04:10:26.433Z,2.25
2023-03-06T04:15:29.392Z,2.03
2023-03-06T04:20:31.440Z,2.28
2023-03-06T04:25:34.951Z,2.41
2023-03-06T04:30:39.517Z,2.48
2023-03-06T04:35:41.462Z,2.40
2023-03-06T04:40:49.902Z,2.49
2023-03-06T04:45:51.764Z,2.49
2023-03-06T04:50:53.469Z,2.54
2023-03-06T04:55:55.082Z,2.52
2023-03-06T05:00:56.755Z,2.61
2023-03-06T05:05:58.395Z,2.63
2023-03-06T05:11:01.781Z,2.51
2023-03-06T05:16:05.153Z,2.76
2023-03-06T05:21:10.246Z,2.54
2023-03-06T05:26:14.238Z,2.74
2023-03-06T05:31:16.481Z,2.83
2023-03-06T05:36:18.101Z,2.68
2023-03-06T05:41:19.629Z,2.49
2023-03-06T05:46:21.291Z,2.74
2023-03-06T05:51:23.467Z,2.65
2023-03-06T05:56:25.002Z,2.85
2023-03-06T06:01:28.407Z,2.81
2023-03-06T06:06:29.982Z,2.64
2023-03-06T06:11:31.827Z,2.56
2023-03-06T06:16:33.384Z,2.67
2023-03-06T06:21:35.162Z,2.60
2023-03-06T06:26:36.733Z,2.45
2023-03-06T06:31:39.411Z,2.24
2023-03-06T06:36:41.946Z,2.24
2023-03-06T06:41:59.408Z,2.27
2023-03-06T06:47:24.528Z,2.44
2023-03-06T06:52:26.803Z,2.67
2023-03-06T06:57:28.412Z,2.85
2023-03-06T07:02:30.217Z,3.09
2023-03-06T07:07:34.467Z,3.03
2023-03-06T07:12:37.058Z,3.11
2023-03-06T07:17:41.015Z,3.23
2023-03-06T07:22:50.907Z,3.10
2023-03-06T07:27:54.735Z,3.17
2023-03-06T07:32:57.908Z,3.17
2023-03-06T07:38:01.840Z,3.42
2023-03-06T07:43:18.299Z,3.17
2023-03-06T07:48:24.919Z,3.40
2023-03-06T07:53:27.364Z,3.32
2023-03-06T07:58:29.198Z,3.63
2023-03-06T08:03:30.864Z,3.62
2023-03-06T08:08:34.841Z,3.87
2023-03-06T08:13:36.765Z,3.96
2023-03-06T08:18:39.935Z,3.70
2023-03-06T08:23:43.675Z,4.22
2023-03-06T08:28:46.517Z,5.00
2023-03-06T08:33:48.116Z,4.75
2023-03-06T08:38:49.798Z,4.32
2023-03-06T08:43:51.874Z,4.02
2023-03-06T08:48:53.880Z,4.48
2023-03-06T08:53:57.148Z,4.36
2023-03-06T08:59:00.527Z,4.51
2023-03-06T09:04:05.587Z,4.68
2023-03-06T09:09:07.379Z,4.24
2023-03-06T09:14:08.927Z,4.31
2023-03-06T09:19:10.675Z,5.10
2023-03-06T09:24:12.258Z,4.99
2023-03-06T09:29:16.486Z,4.45
2023-03-06T09:34:18.157Z,4.48
2023-03-06T09:39:19.795Z,4.20
2023-03-06T09:44:26.022Z,4.44
2023-03-06T09:49:51.971Z,4.77
2023-03-06T09:55:01.066Z,4.81
2023-03-06T10:00:11.857Z,5.23
2023-03-06T10:05:19.814Z,5.82
2023-03-06T10:10:27.949Z,6.37
2023-03-06T10:15:36.101Z,4.62
2023-03-06T10:21:17.033Z,4.61
2023-03-06T10:26:39.882Z,5.93
2023-03-06T10:31:49.266Z,7.13
2023-03-06T10:36:51.242Z,7.55
2023-03-06T10:41:52.773Z,8.01
2023-03-06T10:46:54.649Z,7.01
2023-03-06T10:52:02.308Z,6.16
2023-03-06T10:57:25.857Z,5.28
2023-03-06T11:02:36.721Z,5.36
2023-03-06T11:07:53.986Z,6.16
2023-03-06T11:13:21.174Z,9.13
2023-03-06T11:18:34.848Z,9.65
2023-03-06T11:23:42.104Z,8.09
2023-03-06T11:29:27.238Z,7.25
2023-03-06T11:34:40.221Z,6.42
2023-03-06T11:39:53.560Z,7.18
2023-03-06T11:45:34.839Z,7.47
2023-03-06T11:50:52.594Z,7.48
2023-03-06T11:56:03.527Z,6.99
2023-03-06T12:01:17.404Z,7.30
2023-03-06T12:06:37.776Z,8.50
2023-03-06T12:12:00.799Z,8.05
2023-03-06T12:17:18.416Z,8.80
2023-03-06T12:22:40.947Z,9.96
2023-03-06T12:27:51.775Z,9.07
2023-03-06T12:33:12.356Z,9.91
2023-03-06T12:38:51.834Z,10.02
2023-03-06T12:44:06.851Z,9.02
2023-03-06T12:49:31.804Z,8.89
2023-03-06T12:54:38.998Z,8.76
2023-03-06T12:59:48.079Z,8.52
2023-03-06T13:05:14.196Z,8.35
2023-03-06T13:10:25.618Z,7.46
2023-03-06T13:15:45.538Z,8.55
2023-03-06T13:20:50.748Z,8.43
2023-03-06T13:25:52.358Z,9.91
2023-03-06T13:30:54.056Z,7.91
2023-03-06T13:35:57.455Z,9.35
2023-03-06T13:41:20.924Z,8.42
2023-03-06T13:46:27.095Z,8.22
2023-03-06T13:51:34.929Z,7.87
2023-03-06T13:57:10.116Z,8.46
2023-03-06T14:02:40.009Z,8.54
2023-03-06T14:07:46.717Z,9.02
2023-03-06T14:12:51.298Z,8.92
2023-03-06T14:18:00.254Z,8.49
2023-03-06T14:23:16.636Z,8.82
2023-03-06T14:28:27.121Z,7.81
2023-03-06T14:33:52.950Z,8.61
2023-03-06T14:38:59.061Z,8.31
2023-03-06T14:44:19.428Z,7.73
2023-03-06T14:49:22.167Z,7.78
2023-03-06T14:54:32.348Z,7.94
2023-03-06T14:59:39.838Z,7.70
2023-03-06T15:04:47.077Z,7.60
2023-03-06T15:09:51.700Z,7.60
2023-03-06T15:15:09.689Z,7.39
2023-03-06T15:20:48.854Z,7.12
2023-03-06T15:26:33.920Z,7.24
2023-03-06T15:31:44.740Z,7.19
2023-03-06T15:36:57.453Z,7.18
2023-03-06T15:42:23.775Z,7.20
2023-03-06T15:47:25.691Z,7.05
2023-03-06T15:52:27.376Z,6.61
2023-03-06T15:57:31.799Z,4.83
2023-03-06T16:02:33.973Z,4.56
2023-03-06T16:07:35.541Z,4.17
2023-03-06T16:12:37.287Z,4.27
2023-03-06T16:17:38.790Z,4.55
2023-03-06T16:22:40.635Z,4.30
2023-03-06T16:27:59.039Z,4.22
2023-03-06T16:33:01.781Z,4.62
2023-03-06T16:38:03.634Z,4.76
2023-03-06T16:43:05.495Z,4.79
2023-03-06T16:48:08.092Z,4.67
2023-03-06T16:53:09.988Z,4.66
2023-03-06T16:58:11.724Z,4.64
2023-03-06T17:03:17.900Z,4.52
2023-03-06T17:08:19.482Z,4.47
2023-03-06T17:13:21.232Z,4.55
2023-03-06T17:18:24.443Z,4.65
2023-03-06T17:23:28.857Z,4.45
2023-03-06T17:28:30.704Z,4.50
2023-03-06T17:33:32.295Z,4.45
2023-03-06T17:38:34.000Z,4.47
2023-03-06T17:43:37.262Z,4.42
2023-03-06T17:48:39.915Z,4.44
2023-03-06T17:53:41.738Z,4.54
2023-03-06T17:58:43.289Z,4.52
2023-03-06T18:03:46.775Z,4.48
2023-03-06T18:08:52.297Z,4.35
2023-03-06T18:13:54.537Z,4.40
2023-03-06T18:18:56.871Z,4.33
2023-03-06T18:23:58.498Z,4.33
2023-03-06T18:29:03.748Z,4.52
2023-03-06T18:34:14.965Z,4.29
2023-03-06T18:39:16.591Z,4.29
2023-03-06T18:44:18.984Z,4.47
2023-03-06T18:49:20.661Z,4.09
2023-03-06T18:54:22.232Z,4.38
2023-03-06T18:59:23.851Z,4.50
2023-03-06T19:04:26.019Z,4.35
2023-03-06T19:09:27.635Z,4.30
2023-03-06T19:14:29.252Z,4.35
2023-03-06T19:19:30.892Z,4.31
2023-03-06T19:24:32.508Z,4.24
2023-03-06T19:29:34.216Z,4.26
2023-03-06T19:34:35.892Z,4.18
2023-03-06T19:39:37.755Z,4.03
2023-03-06T19:44:39.253Z,3.92
2023-03-06T19:49:40.856Z,3.97
2023-03-06T19:54:42.646Z,3.89
2023-03-06T19:59:44.310Z,3.88
2023-03-06T20:04:46.934Z,3.96
2023-03-06T20:09:48.605Z,4.18
2023-03-06T20:14:50.242Z,3.95
2023-03-06T20:19:51.815Z,4.15
2023-03-06T20:24:53.760Z,3.99
2023-03-06T20:29:55.320Z,4.04
2023-03-06T20:34:57.981Z,3.96
2023-03-06T20:39:59.726Z,3.94
2023-03-06T20:45:01.281Z,3.99
2023-03-06T20:50:03.454Z,3.87
2023-03-06T20:55:05.504Z,3.81
2023-03-06T21:00:08.807Z,3.73
2023-03-06T21:05:10.939Z,3.74
2023-03-06T21:10:14.517Z,3.52
2023-03-06T21:15:18.618Z,3.51
2023-03-06T21:20:20.288Z,3.39
2023-03-06T21:25:22.291Z,3.31
2023-03-06T21:30:23.855Z,3.47
2023-03-06T21:35:25.488Z,3.47
2023-03-06T21:40:27.260Z,3.28
2023-03-06T21:45:30.353Z,3.38
2023-03-06T21:50:31.892Z,3.27
2023-03-06T21:55:33.439Z,3.29
2023-03-06T22:00:38.530Z,3.28
2023-03-06T22:05:40.170Z,3.17
2023-03-06T22:10:41.968Z,3.23
2023-03-06T22:15:51.422Z,3.20
2023-03-06T22:20:53.068Z,3.25
2023-03-06T22:25:54.681Z,3.33
2023-03-06T22:30:56.303Z,3.41
2023-03-06T22:36:07.660Z,3.67
2023-03-06T22:41:10.616Z,3.63
2023-03-06T22:46:14.872Z,3.62
2023-03-06T22:51:19.186Z,3.69
2023-03-06T22:56:21.979Z,3.90
2023-03-06T23:01:34.342Z,3.95
2023-03-06T23:06:37.989Z,4.06
2023-03-06T23:11:39.530Z,4.08
2023-03-06T23:17:00.113Z,4.17
2023-03-06T23:22:20.243Z,4.27
2023-03-06T23:27:41.109Z,4.36
2023-03-06T23:32:46.080Z,4.34
2023-03-06T23:37:47.994Z,4.34
2023-03-06T23:42:50.123Z,4.55
2023-03-06T23:47:51.765Z,4.48
2023-03-06T23:52:54.164Z,4.52
2023-03-06T23:57:55.807Z,4.51
